createdAt,value
2024-01-21T00:01:30.713Z,-2.56
2024-01-21T00:06:34.273Z,-2.67
2024-01-21T00:11:37.680Z,-2.79
2024-01-21T00:16:41.664Z,-2.95
2024-01-21T00:21:45.070Z,-3.09
2024-01-21T00:26:48.858Z,-3.22
2024-01-21T00:31:53.276Z,-3.31
2024-01-21T00:36:56.708Z,-3.36
2024-01-21T00:42:05.186Z,-3.31
2024-01-21T00:47:12.170Z,-3.22
2024-01-21T00:52:15.794Z,-3.21
2024-01-21T00:57:19.153Z,-3.29
2024-01-21T01:02:22.572Z,-3.41
2024-01-21T01:07:26.999Z,-3.49
2024-01-21T01:12:30.453Z,-3.58
2024-01-21T01:17:33.950Z,-3.65
2024-01-21T01:22:37.624Z,-3.67
2024-01-21T01:27:41.012Z,-3.64
2024-01-21T01:32:44.464Z,-3.60
2024-01-21T01:37:48.039Z,-3.57
2024-01-21T01:42:59.907Z,-3.63
2024-01-21T01:48:05.416Z,-3.76
2024-01-21T01:53:10.148Z,-3.89
2024-01-21T01:58:16.288Z,-3.98
2024-01-21T02:03:20.199Z,-4.12
2024-01-21T02:08:23.665Z,-4.22
2024-01-21T02:13:30.163Z,-4.23
2024-01-21T02:18:37.301Z,-4.25
2024-01-21T02:23:40.812Z,-4.35
2024-01-21T02:28:44.225Z,-4.48
2024-01-21T02:33:48.240Z,-4.57
2024-01-21T02:38:51.675Z,-4.71
2024-01-21T02:43:55.080Z,-4.80
2024-01-21T02:48:59.657Z,-4.82
2024-01-21T02:54:02.992Z,-4.93
2024-01-21T02:59:06.417Z,-5.08
2024-01-21T03:04:13.937Z,-5.16
2024-01-21T03:09:17.300Z,-5.11
2024-01-21T03:14:20.609Z,-5.06
2024-01-21T03:19:24.533Z,-5.09
2024-01-21T03:24:28.024Z,-5.05
2024-01-21T03:29:31.872Z,-5.01
2024-01-21T03:34:35.385Z,-4.93
2024-01-21T03:39:38.845Z,-4.80
2024-01-21T03:44:42.393Z,-4.71
2024-01-21T03:49:46.034Z,-4.68
2024-01-21T03:54:49.486Z,-4.67
2024-01-21T03:59:53.168Z,-4.64
2024-01-21T04:04:56.575Z,-4.47
2024-01-21T04:10:00.603Z,-4.36
2024-01-21T04:15:04.162Z,-4.50
2024-01-21T04:20:09.171Z,-4.70
2024-01-21T04:25:12.493Z,-4.94
2024-01-21T04:30:16.039Z,-5.18
2024-01-21T04:35:19.445Z,-5.43
2024-01-21T04:40:22.809Z,-5.56
2024-01-21T04:45:26.174Z,-5.44
2024-01-21T04:50:29.536Z,-5.33
2024-01-21T04:55:32.886Z,-5.33
2024-01-21T05:00:36.344Z,-5.50
2024-01-21T05:05:39.712Z,-5.66
2024-01-21T05:10:43.421Z,-5.85
2024-01-21T05:15:47.116Z,-6.04
2024-01-21T05:20:50.659Z,-6.10
2024-01-21T05:25:56.235Z,-6.07
2024-01-21T05:30:59.939Z,-6.03
2024-01-21T05:36:03.529Z,-5.96
2024-01-21T05:41:07.852Z,-5.94
2024-01-21T05:46:11.476Z,-5.90
2024-01-21T05:51:14.821Z,-5.76
2024-01-21T05:56:19.655Z,-5.53
2024-01-21T06:01:23.092Z,-5.27
2024-01-21T06:06:27.132Z,-4.98
2024-01-21T06:11:30.722Z,-4.70
2024-01-21T06:16:34.058Z,-4.46
2024-01-21T06:21:44.854Z,-4.30
2024-01-21T06:26:48.215Z,-4.24
2024-01-21T06:31:51.514Z,-4.23
2024-01-21T06:36:54.982Z,-4.24
2024-01-21T06:41:59.381Z,-4.23
2024-01-21T06:47:02.900Z,-4.17
2024-01-21T06:52:09.028Z,-4.04
2024-01-21T06:57:12.522Z,-3.88
2024-01-21T07:02:15.897Z,-3.72
2024-01-21T07:07:19.351Z,-3.54
2024-01-21T07:12:23.058Z,-3.41
2024-01-21T07:17:26.450Z,-3.31
2024-01-21T07:22:30.136Z,-3.18
2024-01-21T07:27:36.194Z,-3.06
2024-01-21T07:32:43.414Z,-2.91
2024-01-21T07:37:51.321Z,-2.75
2024-01-21T07:42:55.018Z,-2.57
2024-01-21T07:47:58.574Z,-2.34
2024-01-21T07:53:02.051Z,-2.10
2024-01-21T07:58:05.615Z,-1.84
2024-01-21T08:03:08.983Z,-1.52
2024-01-21T08:08:12.420Z,-1.15
2024-01-21T08:13:15.706Z,-0.78
2024-01-21T08:18:20.854Z,-0.44
2024-01-21T08:23:26.522Z,-0.17
2024-01-21T08:28:31.930Z,0.02
2024-01-21T08:33:38.402Z,0.18
2024-01-21T08:38:42.499Z,0.31
2024-01-21T08:43:46.104Z,0.41
2024-01-21T08:48:51.634Z,0.52
2024-01-21T08:53:58.668Z,0.64
2024-01-21T08:59:02.193Z,0.74
2024-01-21T09:04:05.951Z,0.87
2024-01-21T09:09:13.641Z,0.98
2024-01-21T09:14:18.158Z,1.10
2024-01-21T09:19:22.318Z,1.22
2024-01-21T09:24:25.863Z,1.39
2024-01-21T09:29:29.240Z,1.62
2024-01-21T09:34:32.792Z,1.77
2024-01-21T09:39:36.701Z,1.85
2024-01-21T09:44:40.300Z,1.89
2024-01-21T09:49:45.841Z,1.91
2024-01-21T09:54:52.095Z,1.95
2024-01-21T09:59:56.982Z,2.01
2024-01-21T10:05:00.438Z,2.13
2024-01-21T10:10:04.043Z,2.23
2024-01-21T10:15:08.180Z,2.37
2024-01-21T10:20:14.011Z,2.49
2024-01-21T10:25:17.549Z,2.50
2024-01-21T10:30:21.001Z,2.57
2024-01-21T10:35:24.907Z,2.68
2024-01-21T10:40:28.203Z,2.73
2024-01-21T10:45:34.227Z,2.82
2024-01-21T10:50:42.927Z,3.05
2024-01-21T10:55:46.419Z,3.19
2024-01-21T11:00:52.494Z,3.20
2024-01-21T11:06:06.725Z,3.19
2024-01-21T11:11:10.169Z,3.18
2024-01-21T11:16:31.864Z,3.27
2024-01-21T11:21:42.228Z,3.43
2024-01-21T11:26:49.278Z,3.55
2024-01-21T11:31:54.468Z,3.57
2024-01-21T11:36:59.260Z,3.51
2024-01-21T11:42:04.456Z,3.45
2024-01-21T11:47:08.956Z,3.39
2024-01-21T11:52:12.771Z,3.38
2024-01-21T11:57:16.215Z,3.40
2024-01-21T12:02:20.791Z,3.46
2024-01-21T12:07:27.228Z,3.31
2024-01-21T12:12:31.565Z,3.16
2024-01-21T12:17:35.063Z,3.06
2024-01-21T12:22:39.641Z,3.04
2024-01-21T12:27:46.590Z,3.13
2024-01-21T12:32:56.307Z,3.20
2024-01-21T12:38:04.981Z,3.25
2024-01-21T12:43:08.447Z,3.18
2024-01-21T12:48:12.194Z,2.96
2024-01-21T12:53:15.787Z,2.80
2024-01-21T12:58:19.484Z,2.67
2024-01-21T13:03:23.537Z,2.51
2024-01-21T13:08:28.701Z,2.42
2024-01-21T13:13:32.836Z,2.39
2024-01-21T13:18:36.237Z,2.38
2024-01-21T13:23:39.685Z,2.38
2024-01-21T13:29:15.810Z,2.35
2024-01-21T13:34:19.323Z,2.33
2024-01-21T13:39:26.842Z,2.34
2024-01-21T13:44:34.290Z,2.34
2024-01-21T13:49:38.620Z,2.30
2024-01-21T13:54:43.347Z,2.25
2024-01-21T13:59:46.810Z,2.23
2024-01-21T14:04:52.397Z,2.17
2024-01-21T14:09:58.151Z,2.08
2024-01-21T14:15:01.858Z,1.97
2024-01-21T14:20:05.984Z,1.91
2024-01-21T14:25:21.001Z,1.86
2024-01-21T14:30:42.554Z,1.84
2024-01-21T14:35:46.110Z,1.82
2024-01-21T14:40:51.755Z,1.79
2024-01-21T14:45:55.353Z,1.74
2024-01-21T14:50:58.967Z,1.69
2024-01-21T14:56:02.767Z,1.64
2024-01-21T15:01:06.194Z,1.61
2024-01-21T15:06:13.140Z,1.59
2024-01-21T15:11:17.168Z,1.60
2024-01-21T15:16:22.318Z,1.63
2024-01-21T15:21:29.960Z,1.63
2024-01-21T15:26:36.496Z,1.61
2024-01-21T15:31:43.041Z,1.60
2024-01-21T15:36:51.432Z,1.58
2024-01-21T15:42:00.151Z,1.57
2024-01-21T15:47:05.961Z,1.56
2024-01-21T15:52:10.557Z,1.56
2024-01-21T15:57:13.930Z,1.58
2024-01-21T16:02:17.878Z,1.60
2024-01-21T16:07:24.312Z,1.59
2024-01-21T16:12:29.243Z,1.58
2024-01-21T16:17:33.781Z,1.57
2024-01-21T16:22:37.238Z,1.55
2024-01-21T16:27:40.779Z,1.54
2024-01-21T16:32:44.371Z,1.55
2024-01-21T16:37:47.839Z,1.59
2024-01-21T16:42:51.338Z,1.62
2024-01-21T16:47:54.785Z,1.64
2024-01-21T16:53:03.594Z,1.66
2024-01-21T16:58:08.946Z,1.65
2024-01-21T17:03:12.791Z,1.61
2024-01-21T17:08:16.380Z,1.60
2024-01-21T17:13:20.540Z,1.59
2024-01-21T17:18:24.948Z,1.56
2024-01-21T17:23:28.710Z,1.50
2024-01-21T17:28:33.303Z,1.43
2024-01-21T17:33:36.836Z,1.36
2024-01-21T17:38:40.387Z,1.30
2024-01-21T17:43:43.953Z,1.25
2024-01-21T17:48:47.977Z,1.23
2024-01-21T17:53:55.323Z,1.21
2024-01-21T17:58:58.767Z,1.20
2024-01-21T18:04:03.212Z,1.19
2024-01-21T18:09:07.534Z,1.18
2024-01-21T18:14:13.060Z,1.17
2024-01-21T18:19:17.984Z,1.17
2024-01-21T18:24:21.754Z,1.18
2024-01-21T18:29:30.741Z,1.20
2024-01-21T18:34:41.890Z,1.19
2024-01-21T18:39:45.629Z,1.17
2024-01-21T18:44:49.736Z,1.16
2024-01-21T18:49:53.091Z,1.12
2024-01-21T18:54:58.528Z,1.05
2024-01-21T19:00:02.155Z,0.95
2024-01-21T19:05:06.500Z,0.85
2024-01-21T19:10:11.281Z,0.74
2024-01-21T19:15:16.888Z,0.70
2024-01-21T19:20:20.489Z,0.68
2024-01-21T19:25:24.384Z,0.73
2024-01-21T19:30:31.977Z,0.80
2024-01-21T19:35:36.266Z,0.88
2024-01-21T19:40:42.598Z,0.96
2024-01-21T19:45:46.713Z,1.02
2024-01-21T19:50:50.736Z,1.07
2024-01-21T19:55:55.018Z,1.09
2024-01-21T20:00:58.544Z,1.08
2024-01-21T20:06:03.321Z,1.08
2024-01-21T20:11:06.759Z,1.09
2024-01-21T20:16:10.200Z,1.12
2024-01-21T20:21:13.806Z,1.15
2024-01-21T20:26:17.335Z,1.16
2024-01-21T20:31:23.458Z,1.19
2024-01-21T20:36:26.812Z,1.23
2024-01-21T20:41:32.846Z,1.27
2024-01-21T20:46:38.300Z,1.29
2024-01-21T20:51:42.037Z,1.31
2024-01-21T20:56:48.024Z,1.31
2024-01-21T21:01:51.664Z,1.29
2024-01-21T21:06:55.213Z,1.27
2024-01-21T21:11:58.774Z,1.21
2024-01-21T21:17:06.411Z,1.15
2024-01-21T21:22:10.216Z,1.11
2024-01-21T21:27:14.380Z,1.08
2024-01-21T21:32:18.236Z,1.09
2024-01-21T21:37:21.807Z,1.13
2024-01-21T21:42:25.791Z,1.17
2024-01-21T21:47:29.337Z,1.24
2024-01-21T21:52:33.812Z,1.29
2024-01-21T21:57:37.311Z,1.31
2024-01-21T22:02:46.109Z,1.34
2024-01-21T22:07:51.299Z,1.37
2024-01-21T22:12:55.622Z,1.43
2024-01-21T22:17:59.477Z,1.47
2024-01-21T22:23:04.248Z,1.49
2024-01-21T22:28:07.922Z,1.50
2024-01-21T22:33:11.306Z,1.50
2024-01-21T22:38:14.839Z,1.49
2024-01-21T22:43:18.920Z,1.46
2024-01-21T22:48:22.605Z,1.42
2024-01-21T22:53:26.937Z,1.39
2024-01-21T22:58:30.321Z,1.36
2024-01-21T23:03:34.127Z,1.34
2024-01-21T23:08:37.962Z,1.33
2024-01-21T23:13:41.343Z,1.36
2024-01-21T23:18:44.914Z,1.40
2024-01-21T23:23:48.471Z,1.44
2024-01-21T23:28:52.267Z,1.48
2024-01-21T23:33:55.858Z,1.51
2024-01-21T23:38:59.391Z,1.53
2024-01-21T23:44:02.871Z,1.54
2024-01-21T23:49:06.400Z,1.55
2024-01-21T23:54:10.010Z,1.55
2024-01-21T23:59:13.879Z,1.54
